PWSweather.com
Personal Weather Stations
Station Observations
PENICUIKWS
PenicuikGB

PenicuikGB

Lat: 55.830932, Lon: -3.224533000000065

Elevation: 166

Station Type: Fine Offset

http://weather.penicuik.org

High Low Average
Temperature 32.5°F0.3°C 23.0°F-5.0°C 27.9°F-2.3°C
Dew Point 27.8°F-2.3°C 18.4°F-7.6°C 22.1°F-5.5°C
Winds 11.2 mph 18.0 kmh 2.3 mph 3.7 kmh 6.0 mph SSW9.7 kmh SSW
Wind Gusts 17.4 mph28.0 kmh 3.8 mph6.1 kmh 10.0 mph16.1 kmh
Humidity 86% 61% 79%
Pressure 30.21 in1023.0 mb 29.84 in1010.5 mb -
Precipitation 0.04 in1.0 mm - -
Hour Temp Dew Point Humidity Winds Wind Gusts Pressure Precip Precip Rate Daily Precip Total
12:00 AM 23.0°F-5.0°C 18.4°F-7.6°C 82% 2.3 mph N3.7 kmh N 6.0 mph9.7 kmh 30.21 in1023.0 mb 0.00 in0.0 mm 0.00 in0.0 mm 0.00 in0.0 mm
12:15 AM 23.5°F-4.7°C 18.9°F-7.3°C 82% 2.9 mph NNW4.7 kmh NNW 6.0 mph9.7 kmh 30.21 in1023.0 mb 0.00 in0.0 mm 0.00 in0.0 mm 0.00 in0.0 mm
12:30 AM 23.7°F-4.6°C 19.1°F-7.2°C 82% 2.6 mph NNW4.2 kmh NNW 3.8 mph6.1 kmh 30.21 in1023.0 mb 0.00 in0.0 mm 0.00 in0.0 mm 0.00 in0.0 mm
12:45 AM 24.3°F-4.3°C 19.6°F-6.9°C 82% 3.8 mph NNE6.1 kmh NNE 4.5 mph7.2 kmh 30.21 in1023.0 mb 0.00 in0.0 mm 0.00 in0.0 mm 0.00 in0.0 mm
01:00 AM 24.3°F-4.3°C 19.6°F-6.9°C 82% 3.1 mph N5.0 kmh N 5.4 mph8.7 kmh 30.20 in1022.7 mb 0.00 in0.0 mm 0.00 in0.0 mm 0.00 in0.0 mm
01:15 AM 24.4°F-4.2°C 20.1°F-6.6°C 83% 4.4 mph WSW7.1 kmh WSW 6.9 mph11.1 kmh 30.20 in1022.7 mb 0.00 in0.0 mm 0.00 in0.0 mm 0.00 in0.0 mm
01:30 AM 24.3°F-4.3°C 19.6°F-6.9°C 82% 3.4 mph ENE5.5 kmh ENE 7.6 mph12.2 kmh 30.19 in1022.4 mb 0.00 in0.0 mm 0.00 in0.0 mm 0.00 in0.0 mm
01:45 AM 24.1°F-4.4°C 19.4°F-7.0°C 82% 4.1 mph NNW6.6 kmh NNW 4.5 mph7.2 kmh 30.18 in1022.0 mb 0.00 in0.0 mm 0.00 in0.0 mm 0.00 in0.0 mm
02:00 AM 24.1°F-4.4°C 19.4°F-7.0°C 82% 3.1 mph NNW5.0 kmh NNW 3.8 mph6.1 kmh 30.18 in1022.0 mb 0.00 in0.0 mm 0.00 in0.0 mm 0.00 in0.0 mm
02:15 AM 24.6°F-4.1°C 20.2°F-6.6°C 83% 3.1 mph NW5.0 kmh NW 4.5 mph7.2 kmh 30.17 in1021.7 mb 0.00 in0.0 mm 0.00 in0.0 mm 0.00 in0.0 mm
02:30 AM 25.0°F-3.9°C 20.3°F-6.5°C 82% 4.1 mph N6.6 kmh N 6.9 mph11.1 kmh 30.17 in1021.7 mb 0.00 in0.0 mm 0.00 in0.0 mm 0.00 in0.0 mm
02:45 AM 25.0°F-3.9°C 20.3°F-6.5°C 82% 6.3 mph N10.1 kmh N 6.9 mph11.1 kmh 30.16 in1021.3 mb 0.00 in0.0 mm 0.00 in0.0 mm 0.00 in0.0 mm
03:00 AM 24.6°F-4.1°C 20.2°F-6.6°C 83% 2.8 mph NNW4.5 kmh NNW 5.4 mph8.7 kmh 30.16 in1021.3 mb 0.00 in0.0 mm 0.00 in0.0 mm 0.00 in0.0 mm
03:15 AM 24.1°F-4.4°C 19.7°F-6.8°C 83% 3.0 mph NW4.8 kmh NW 3.8 mph6.1 kmh 30.15 in1021.0 mb 0.00 in0.0 mm 0.00 in0.0 mm 0.00 in0.0 mm
03:30 AM 23.7°F-4.6°C 19.1°F-7.2°C 82% 2.6 mph NNE4.2 kmh NNE 4.5 mph7.2 kmh 30.14 in1020.7 mb 0.00 in0.0 mm 0.00 in0.0 mm 0.00 in0.0 mm
03:45 AM 23.7°F-4.6°C 19.1°F-7.2°C 82% 3.4 mph N5.5 kmh N 4.5 mph7.2 kmh 30.14 in1020.7 mb 0.00 in0.0 mm 0.00 in0.0 mm 0.00 in0.0 mm
04:00 AM 24.6°F-4.1°C 20.2°F-6.6°C 83% 4.2 mph NNE6.8 kmh NNE 8.3 mph13.4 kmh 30.14 in1020.7 mb 0.00 in0.0 mm 0.00 in0.0 mm 0.00 in0.0 mm
04:15 AM 24.6°F-4.1°C 20.2°F-6.6°C 83% 4.4 mph NNW7.1 kmh NNW 7.6 mph12.2 kmh 30.13 in1020.3 mb 0.00 in0.0 mm 0.00 in0.0 mm 0.00 in0.0 mm
04:30 AM 24.6°F-4.1°C 20.2°F-6.6°C 83% 2.9 mph NW4.7 kmh NW 4.5 mph7.2 kmh 30.13 in1020.3 mb 0.00 in0.0 mm 0.00 in0.0 mm 0.00 in0.0 mm
05:00 AM 25.2°F-3.8°C 20.5°F-6.4°C 82% 4.7 mph W7.6 kmh W 6.9 mph11.1 kmh 30.12 in1020.0 mb 0.00 in0.0 mm 0.00 in0.0 mm 0.00 in0.0 mm
05:15 AM 25.2°F-3.8°C 20.5°F-6.4°C 82% 5.1 mph SE8.2 kmh SE 8.3 mph13.4 kmh 30.11 in1019.6 mb 0.00 in0.0 mm 0.00 in0.0 mm 0.00 in0.0 mm
05:30 AM 24.8°F-4.0°C 20.1°F-6.6°C 82% 2.9 mph N4.7 kmh N 4.5 mph7.2 kmh 30.11 in1019.6 mb 0.00 in0.0 mm 0.00 in0.0 mm 0.00 in0.0 mm
05:45 AM 25.2°F-3.8°C 20.5°F-6.4°C 82% 2.7 mph N4.3 kmh N 3.8 mph6.1 kmh 30.10 in1019.3 mb 0.00 in0.0 mm 0.00 in0.0 mm 0.00 in0.0 mm
06:00 AM 25.2°F-3.8°C 20.5°F-6.4°C 82% 4.0 mph N6.4 kmh N 6.0 mph9.7 kmh 30.09 in1019.0 mb 0.00 in0.0 mm 0.00 in0.0 mm 0.00 in0.0 mm
06:15 AM 25.3°F-3.7°C 20.6°F-6.3°C 82% 3.7 mph NE6.0 kmh NE 5.4 mph8.7 kmh 30.09 in1019.0 mb 0.00 in0.0 mm 0.00 in0.0 mm 0.00 in0.0 mm
06:30 AM 25.3°F-3.7°C 20.6°F-6.3°C 82% 5.1 mph N8.2 kmh N 9.2 mph14.8 kmh 30.08 in1018.6 mb 0.00 in0.0 mm 0.00 in0.0 mm 0.00 in0.0 mm
06:45 AM 25.5°F-3.6°C 20.8°F-6.2°C 82% 3.9 mph ENE6.3 kmh ENE 6.9 mph11.1 kmh 30.08 in1018.6 mb 0.00 in0.0 mm 0.00 in0.0 mm 0.00 in0.0 mm
07:00 AM 25.2°F-3.8°C 20.5°F-6.4°C 82% 3.3 mph NNW5.3 kmh NNW 5.4 mph8.7 kmh 30.08 in1018.6 mb 0.00 in0.0 mm 0.00 in0.0 mm 0.00 in0.0 mm
07:15 AM 24.6°F-4.1°C 20.2°F-6.6°C 83% 2.9 mph N4.7 kmh N 4.5 mph7.2 kmh 30.07 in1018.3 mb 0.00 in0.0 mm 0.00 in0.0 mm 0.00 in0.0 mm
07:30 AM 25.0°F-3.9°C 20.3°F-6.5°C 82% 3.6 mph N5.8 kmh N 5.4 mph8.7 kmh 30.07 in1018.3 mb 0.00 in0.0 mm 0.00 in0.0 mm 0.00 in0.0 mm
07:45 AM 25.3°F-3.7°C 20.6°F-6.3°C 82% 3.7 mph ENE6.0 kmh ENE 5.4 mph8.7 kmh 30.07 in1018.3 mb 0.00 in0.0 mm 0.00 in0.0 mm 0.00 in0.0 mm
08:15 AM 26.4°F-3.1°C 21.7°F-5.7°C 82% 2.8 mph NW4.5 kmh NW 3.8 mph6.1 kmh 30.06 in1017.9 mb 0.00 in0.0 mm 0.00 in0.0 mm 0.00 in0.0 mm
08:30 AM 26.8°F-2.9°C 21.8°F-5.7°C 81% 6.3 mph S10.1 kmh S 9.8 mph15.8 kmh 30.06 in1017.9 mb 0.00 in0.0 mm 0.00 in0.0 mm 0.00 in0.0 mm
08:45 AM 28.2°F-2.1°C 23.5°F-4.7°C 82% 5.6 mph NW9.0 kmh NW 8.3 mph13.4 kmh 30.07 in1018.3 mb 0.00 in0.0 mm 0.00 in0.0 mm 0.00 in0.0 mm
09:00 AM 29.3°F-1.5°C 25.7°F-3.5°C 86% 2.7 mph N4.3 kmh N 3.8 mph6.1 kmh 30.06 in1017.9 mb 0.00 in0.0 mm 0.00 in0.0 mm 0.00 in0.0 mm
09:15 AM 31.8°F-0.1°C 27.8°F-2.3°C 85% 3.6 mph SW5.8 kmh SW 6.9 mph11.1 kmh 30.05 in1017.6 mb 0.00 in0.0 mm 0.00 in0.0 mm 0.00 in0.0 mm
09:30 AM 31.6°F-0.2°C 26.8°F-2.9°C 82% 4.3 mph WNW6.9 kmh WNW 6.9 mph11.1 kmh 30.05 in1017.6 mb 0.00 in0.0 mm 0.00 in0.0 mm 0.00 in0.0 mm
09:45 AM 28.2°F-2.1°C 21.7°F-5.7°C 76% 6.1 mph WSW9.8 kmh WSW 14.5 mph23.3 kmh 30.05 in1017.6 mb 0.00 in0.0 mm 0.00 in0.0 mm 0.00 in0.0 mm
10:15 AM 30.9°F-0.6°C 25.8°F-3.4°C 81% 4.5 mph NE7.2 kmh NE 8.3 mph13.4 kmh 30.05 in1017.6 mb 0.00 in0.0 mm 0.00 in0.0 mm 0.00 in0.0 mm
10:30 AM 29.5°F-1.4°C 24.1°F-4.4°C 80% 6.1 mph N9.8 kmh N 8.3 mph13.4 kmh 30.04 in1017.3 mb 0.00 in0.0 mm 0.00 in0.0 mm 0.00 in0.0 mm
10:45 AM 30.0°F-1.1°C 23.1°F-4.9°C 75% 6.5 mph SW10.5 kmh SW 13.0 mph20.9 kmh 30.04 in1017.3 mb 0.00 in0.0 mm 0.00 in0.0 mm 0.00 in0.0 mm
11:00 AM 30.4°F-0.9°C 21.8°F-5.7°C 70% 8.2 mph SW13.2 kmh SW 13.6 mph21.9 kmh 30.04 in1017.3 mb 0.00 in0.0 mm 0.00 in0.0 mm 0.00 in0.0 mm
11:15 AM 32.5°F0.3°C 22.1°F-5.5°C 65% 7.0 mph SSE11.3 kmh SSE 10.7 mph17.2 kmh 30.02 in1016.6 mb 0.00 in0.0 mm 0.00 in0.0 mm 0.00 in0.0 mm
11:30 AM 31.5°F-0.3°C 21.1°F-6.1°C 65% 7.1 mph WSW11.4 kmh WSW 9.8 mph15.8 kmh 30.03 in1016.9 mb 0.00 in0.0 mm 0.00 in0.0 mm 0.00 in0.0 mm
11:45 AM 32.0°F0.0°C 21.2°F-6.0°C 64% 10.2 mph NNW16.4 kmh NNW 16.8 mph27.0 kmh 30.02 in1016.6 mb 0.00 in0.0 mm 0.00 in0.0 mm 0.00 in0.0 mm
12:00 PM 31.5°F-0.3°C 21.1°F-6.1°C 65% 7.8 mph S12.6 kmh S 11.4 mph18.3 kmh 30.01 in1016.3 mb 0.00 in0.0 mm 0.00 in0.0 mm 0.00 in0.0 mm
12:15 PM 31.5°F-0.3°C 20.3°F-6.5°C 63% 8.8 mph NNE14.2 kmh NNE 11.4 mph18.3 kmh 30.00 in1015.9 mb 0.00 in0.0 mm 0.00 in0.0 mm 0.00 in0.0 mm
12:30 PM 32.4°F0.2°C 20.4°F-6.4°C 61% 8.1 mph NE13.0 kmh NE 9.8 mph15.8 kmh 29.99 in1015.6 mb 0.00 in0.0 mm 0.00 in0.0 mm 0.00 in0.0 mm
12:45 PM 32.2°F0.1°C 21.8°F-5.7°C 65% 7.2 mph SW11.6 kmh SW 9.2 mph14.8 kmh 30.00 in1015.9 mb 0.00 in0.0 mm 0.00 in0.0 mm 0.00 in0.0 mm
01:00 PM 32.0°F0.0°C 22.3°F-5.4°C 67% 6.7 mph NNE10.8 kmh NNE 12.1 mph19.5 kmh 29.99 in1015.6 mb 0.00 in0.0 mm 0.00 in0.0 mm 0.00 in0.0 mm
01:15 PM 31.6°F-0.2°C 23.7°F-4.6°C 72% 7.2 mph N11.6 kmh N 12.1 mph19.5 kmh 29.98 in1015.2 mb 0.00 in0.0 mm 0.00 in0.0 mm 0.00 in0.0 mm
01:30 PM 31.6°F-0.2°C 24.3°F-4.3°C 74% 8.3 mph NNE13.4 kmh NNE 13.0 mph20.9 kmh 29.97 in1014.9 mb 0.00 in0.0 mm 0.00 in0.0 mm 0.00 in0.0 mm
01:45 PM 30.6°F-0.8°C 22.6°F-5.2°C 72% 8.6 mph SW13.8 kmh SW 11.4 mph18.3 kmh 29.98 in1015.2 mb 0.00 in0.0 mm 0.00 in0.0 mm 0.00 in0.0 mm
02:00 PM 29.7°F-1.3°C 23.4°F-4.8°C 77% 7.7 mph SW12.4 kmh SW 10.7 mph17.2 kmh 29.96 in1014.6 mb 0.00 in0.0 mm 0.00 in0.0 mm 0.00 in0.0 mm
02:15 PM 29.1°F-1.6°C 23.1°F-4.9°C 78% 6.6 mph WNW10.6 kmh WNW 9.2 mph14.8 kmh 29.95 in1014.2 mb 0.00 in0.0 mm 0.00 in0.0 mm 0.00 in0.0 mm
02:30 PM 30.4°F-0.9°C 23.7°F-4.6°C 76% 9.7 mph N15.6 kmh N 13.6 mph21.9 kmh 29.94 in1013.9 mb 0.00 in0.0 mm 0.00 in0.0 mm 0.00 in0.0 mm
02:45 PM 30.0°F-1.1°C 22.4°F-5.3°C 73% 11.2 mph N18.0 kmh N 15.2 mph24.5 kmh 29.93 in1013.5 mb 0.00 in0.0 mm 0.00 in0.0 mm 0.00 in0.0 mm
03:00 PM 30.2°F-1.0°C 22.3°F-5.4°C 72% 8.2 mph NNW13.2 kmh NNW 13.0 mph20.9 kmh 29.93 in1013.5 mb 0.00 in0.0 mm 0.00 in0.0 mm 0.00 in0.0 mm
03:15 PM 30.6°F-0.8°C 21.6°F-5.8°C 69% 7.1 mph NW11.4 kmh NW 12.1 mph19.5 kmh 29.93 in1013.5 mb 0.00 in0.0 mm 0.00 in0.0 mm 0.00 in0.0 mm
03:30 PM 29.8°F-1.2°C 21.9°F-5.6°C 72% 9.1 mph SE14.6 kmh SE 14.5 mph23.3 kmh 29.92 in1013.2 mb 0.00 in0.0 mm 0.00 in0.0 mm 0.00 in0.0 mm
03:45 PM 29.8°F-1.2°C 23.2°F-4.9°C 76% 8.8 mph N14.2 kmh N 13.6 mph21.9 kmh 29.92 in1013.2 mb 0.00 in0.0 mm 0.00 in0.0 mm 0.00 in0.0 mm
04:30 PM 28.6°F-1.9°C 23.8°F-4.6°C 82% 7.8 mph N12.6 kmh N 15.2 mph24.5 kmh 29.91 in1012.9 mb 0.01 in0.3 mm 0.04 in1.0 mm 0.01 in0.3 mm
04:45 PM 28.6°F-1.9°C 23.8°F-4.6°C 82% 9.2 mph N14.8 kmh N 15.2 mph24.5 kmh 29.91 in1012.9 mb 0.01 in0.3 mm 0.00 in0.0 mm 0.01 in0.3 mm
05:00 PM 28.4°F-2.0°C 23.6°F-4.7°C 82% 10.5 mph E16.9 kmh E 14.5 mph23.3 kmh 29.91 in1012.9 mb 0.01 in0.3 mm 0.00 in0.0 mm 0.01 in0.3 mm
05:15 PM 28.4°F-2.0°C 23.6°F-4.7°C 82% 8.6 mph N13.8 kmh N 11.4 mph18.3 kmh 29.90 in1012.5 mb 0.00 in0.0 mm 0.00 in0.0 mm 0.01 in0.3 mm
05:30 PM 28.6°F-1.9°C 23.5°F-4.7°C 81% 8.4 mph ENE13.5 kmh ENE 9.2 mph14.8 kmh 29.90 in1012.5 mb 0.00 in0.0 mm 0.00 in0.0 mm 0.01 in0.3 mm
05:45 PM 28.6°F-1.9°C 23.5°F-4.7°C 81% 7.8 mph N12.6 kmh N 11.4 mph18.3 kmh 29.90 in1012.5 mb 0.00 in0.0 mm 0.00 in0.0 mm 0.01 in0.3 mm
06:00 PM 29.1°F-1.6°C 21.9°F-5.6°C 74% 7.9 mph S12.7 kmh S 13.6 mph21.9 kmh 29.90 in1012.5 mb 0.00 in0.0 mm 0.00 in0.0 mm 0.01 in0.3 mm
06:45 PM 28.4°F-2.0°C 24.2°F-4.3°C 84% 6.8 mph SW10.9 kmh SW 9.8 mph15.8 kmh 29.89 in1012.2 mb 0.00 in0.0 mm 0.00 in0.0 mm 0.01 in0.3 mm
07:00 PM 28.4°F-2.0°C 24.5°F-4.2°C 85% 8.9 mph NNE14.3 kmh NNE 10.7 mph17.2 kmh 29.88 in1011.9 mb 0.00 in0.0 mm 0.00 in0.0 mm 0.01 in0.3 mm
07:15 PM 28.6°F-1.9°C 24.4°F-4.2°C 84% 7.2 mph NE11.6 kmh NE 11.4 mph18.3 kmh 29.87 in1011.5 mb 0.00 in0.0 mm 0.00 in0.0 mm 0.01 in0.3 mm
07:30 PM 29.1°F-1.6°C 23.7°F-4.6°C 80% 7.4 mph NNW11.9 kmh NNW 9.2 mph14.8 kmh 29.88 in1011.9 mb 0.00 in0.0 mm 0.00 in0.0 mm 0.01 in0.3 mm
07:45 PM 29.3°F-1.5°C 22.4°F-5.3°C 75% 6.7 mph NNE10.8 kmh NNE 10.7 mph17.2 kmh 29.87 in1011.5 mb 0.00 in0.0 mm 0.00 in0.0 mm 0.01 in0.3 mm
08:00 PM 29.3°F-1.5°C 21.7°F-5.7°C 73% 9.2 mph NW14.8 kmh NW 15.2 mph24.5 kmh 29.87 in1011.5 mb 0.00 in0.0 mm 0.00 in0.0 mm 0.01 in0.3 mm
08:15 PM 29.3°F-1.5°C 21.7°F-5.7°C 73% 10.8 mph ENE17.4 kmh ENE 16.8 mph27.0 kmh 29.87 in1011.5 mb 0.00 in0.0 mm 0.00 in0.0 mm 0.01 in0.3 mm
08:30 PM 29.1°F-1.6°C 21.9°F-5.6°C 74% 9.4 mph NE15.1 kmh NE 17.4 mph28.0 kmh 29.86 in1011.2 mb 0.00 in0.0 mm 0.00 in0.0 mm 0.01 in0.3 mm
08:45 PM 29.5°F-1.4°C 22.6°F-5.2°C 75% 7.8 mph NNW12.6 kmh NNW 14.5 mph23.3 kmh 29.86 in1011.2 mb 0.00 in0.0 mm 0.00 in0.0 mm 0.01 in0.3 mm
09:00 PM 29.5°F-1.4°C 22.2°F-5.4°C 74% 6.9 mph N11.1 kmh N 9.8 mph15.8 kmh 29.86 in1011.2 mb 0.00 in0.0 mm 0.00 in0.0 mm 0.01 in0.3 mm
09:15 PM 29.1°F-1.6°C 23.4°F-4.8°C 79% 7.7 mph N12.4 kmh N 15.2 mph24.5 kmh 29.86 in1011.2 mb 0.00 in0.0 mm 0.00 in0.0 mm 0.01 in0.3 mm
09:30 PM 28.6°F-1.9°C 23.8°F-4.6°C 82% 9.8 mph E15.8 kmh E 14.5 mph23.3 kmh 29.85 in1010.8 mb 0.00 in0.0 mm 0.00 in0.0 mm 0.01 in0.3 mm
09:45 PM 28.6°F-1.9°C 24.4°F-4.2°C 84% 9.5 mph N15.3 kmh N 13.0 mph20.9 kmh 29.86 in1011.2 mb 0.00 in0.0 mm 0.00 in0.0 mm 0.01 in0.3 mm
10:00 PM 28.6°F-1.9°C 24.4°F-4.2°C 84% 7.9 mph NW12.7 kmh NW 10.7 mph17.2 kmh 29.85 in1010.8 mb 0.00 in0.0 mm 0.00 in0.0 mm 0.01 in0.3 mm
10:15 PM 28.6°F-1.9°C 24.7°F-4.1°C 85% 8.3 mph N13.4 kmh N 12.1 mph19.5 kmh 29.85 in1010.8 mb 0.00 in0.0 mm 0.00 in0.0 mm 0.01 in0.3 mm
10:30 PM 28.6°F-1.9°C 24.7°F-4.1°C 85% 8.2 mph N13.2 kmh N 15.9 mph25.6 kmh 29.85 in1010.8 mb 0.00 in0.0 mm 0.00 in0.0 mm 0.01 in0.3 mm
10:45 PM 28.6°F-1.9°C 24.7°F-4.1°C 85% 9.1 mph N14.6 kmh N 13.6 mph21.9 kmh 29.84 in1010.5 mb 0.00 in0.0 mm 0.00 in0.0 mm 0.01 in0.3 mm
11:00 PM 29.1°F-1.6°C 24.9°F-3.9°C 84% 8.4 mph NW13.5 kmh NW 12.1 mph19.5 kmh 29.84 in1010.5 mb 0.00 in0.0 mm 0.00 in0.0 mm 0.01 in0.3 mm
11:30 PM 29.5°F-1.4°C 24.4°F-4.2°C 81% 7.9 mph NNW12.7 kmh NNW 14.5 mph23.3 kmh 29.84 in1010.5 mb 0.00 in0.0 mm 0.00 in0.0 mm 0.01 in0.3 mm
11:45 PM 29.8°F-1.2°C 23.2°F-4.9°C 76% 9.7 mph NE15.6 kmh NE 10.7 mph17.2 kmh 29.84 in1010.5 mb 0.02 in0.5 mm 0.08 in2.0 mm 0.04 in1.0 mm